METAR Reports From Nearby Airports

 

KLUD - Decatur, Texas, USA
Distance from Wildwood: OSO 5mi, 8km
aktuell: Mar 28, 2020 9:55am
Partly Cloudy
Partly Cloudy
 Wind von W
Wind: W 13 mph , 20 km/h, Windböen: 17 mph , 28 km/h
Temperatur: 66°F , 19°C
Taupunkt: 37°F , 3°C
Luftfeuchte: 35%
Luftdruck: 29.84 inHg , 1010.5 hPa
Clouds: Partly Cloudy
Visibility: 10 miles , 16 km
Cloud details: Partly Cloudy 8000 ft
2020/03/28 14:55 KLUD 281455Z AUTO 26011G15KT 10SM SCT080 19/03 A2984 RMK AO2 T01880031
KXBP - Bridgeport, Texas, USA
Distance from Wildwood: WSW 11mi, 18km
aktuell: Mar 28, 2020 9:55am
klar
klar
 Wind von W
Wind: W 9 mph , 15 km/h
Temperatur: 63°F , 17°C
Taupunkt: 39°F , 4°C
Luftfeuchte: 42%
Luftdruck: 29.87 inHg , 1011.5 hPa
Clouds: klar
Visibility: 10 miles , 16 km
2020/03/28 14:55 KXBP 281455Z AUTO 27008KT 10SM CLR 17/04 A2987 RMK AO2 60007 T01650036
 
K0F2 - Bowie, Texas, USA
Distance from Wildwood: NNW 24mi, 39km
aktuell: Mar 28, 2020 9:55am
klar
klar
 Wind von W
Wind: W 10 mph , 17 km/h, Windböen: 18 mph , 30 km/h
Temperatur: 68°F , 20°C
Taupunkt: 30°F , -1°C
Luftfeuchte: 24%
Luftdruck: 29.84 inHg , 1010.5 hPa
Clouds: klar
Visibility: 10 miles , 16 km
2020/03/28 14:55 K0F2 281455Z AUTO 27009G16KT 10SM CLR 20/M01 A2984 RMK AO2 T01961006
KDTO - Denton, Texas, USA
Distance from Wildwood: O 27mi, 44km
aktuell: Mar 28, 2020 9:53am
sehr leichter Niederschlag, geschlossene Wolkendecke
sehr leichter Niederschlag, geschlossene Wolkendecke
 Wind von W
Wind: W 7 mph , 11 km/h
Temperatur: 61°F , 16°C
Taupunkt: 46°F , 8°C
Luftfeuchte: 59%
Luftdruck: 29.84 inHg , 1010.5 hPa
Zusammenfassung: Light Rain
Clouds: geschlossene Wolkendecke
Visibility: 10 miles , 16 km
Cloud details: Few Clouds 7500 ft
Mostly Cloudy 10000 ft
geschlossene Wolkendecke 11000 ft
2020/03/28 14:53 KDTO 281453Z 28006KT 10SM -RA FEW075 BKN100 OVC110 16/08 A2984 RMK AO2 RAE08B47 SLP099 P0000 60005 T01610083 51050
 
KAFW - Ft Worth/Allianc, Texas, USA
Distance from Wildwood: SO 29mi, 46km
aktuell: Mar 28, 2020 9:53am
geschlossene Wolkendecke
geschlossene Wolkendecke
 Wind von WSW
Wind: WSW 6 mph , 9 km/h
Temperatur: 61°F , 16°C
Taupunkt: 48°F , 9°C
Luftfeuchte: 63%
Luftdruck: 29.85 inHg , 1010.8 hPa
Clouds: geschlossene Wolkendecke
Visibility: 10 miles , 16 km
Cloud details: Few Clouds 5000 ft
geschlossene Wolkendecke 10000 ft
2020/03/28 14:53 KAFW 281453Z 24005KT 10SM FEW050 OVC100 16/09 A2985 RMK AO2 RAE52 TSE28 SLP098 TS MOV NE P0000 60005 T01560094 51045 $
KFTW - Fort Worth, Texas, USA
Distance from Wildwood: SSO 34mi, 55km
aktuell: Mar 28, 2020 9:53am
sehr leichter Niederschlag, geschlossene Wolkendecke
sehr leichter Niederschlag, geschlossene Wolkendecke
 Wind von WNW
Wind: WNW 8 mph , 13 km/h
Temperatur: 55°F , 13°C
Taupunkt: 54°F , 12°C
Luftfeuchte: 94%
Luftdruck: 29.83 inHg , 1010.2 hPa
Zusammenfassung: Light Rain
Clouds: geschlossene Wolkendecke
Visibility: 10 miles , 16 km
Cloud details: geschlossene Wolkendecke 10000 ft
2020/03/28 14:53 KFTW 281453Z 30007KT 10SM -RA OVC100 13/12 A2983 RMK AO2 LTG DSNT SE RAE15B34 SLP096 P0003 60019 T01330122 50044
 
KNFW - Fort Worth Nas, Texas, USA
Distance from Wildwood: SSO 36mi, 58km
aktuell: Mar 28, 2020 9:52am
sehr leichter Niederschlag, geschlossene Wolkendecke
sehr leichter Niederschlag, geschlossene Wolkendecke
 Wind von NW
Wind: NW 10 mph , 17 km/h
Temperatur: 61°F , 16°C
Taupunkt: 50°F , 10°C
Luftfeuchte: 68%
Luftdruck: 29.84 inHg , 1010.5 hPa
Zusammenfassung: Light Rain
Clouds: geschlossene Wolkendecke
Visibility: 10 miles , 16 km
Cloud details: Few Clouds 7000 ft
geschlossene Wolkendecke 10000 ft
2020/03/28 14:52 KNFW 281452Z 31009KT 10SM -RA FEW070 OVC100 16/10 A2984 RMK AO2 RAE06B31 PRESFR SLP090 6//// T01610100 50005 PNO VISNO N $
KGLE - Gainesville, Texas, USA
Distance from Wildwood: NO 38mi, 61km
aktuell: Mar 28, 2020 9:55am
geschlossene Wolkendecke
geschlossene Wolkendecke
 Wind von W
Wind: W 3 mph , 6 km/h
Temperatur: 59°F , 15°C
Taupunkt: 46°F , 8°C
Luftfeuchte: 63%
Luftdruck: 29.84 inHg , 1010.5 hPa
Clouds: geschlossene Wolkendecke
Visibility: 10 miles , 16 km
Cloud details: Partly Cloudy 6500 ft
geschlossene Wolkendecke 10000 ft
2020/03/28 14:55 KGLE 281455Z AUTO 26003KT 10SM SCT065 OVC100 15/08 A2984 RMK AO2 P0003 60004 T01530076 PWINO
 
KMWL - Mineral Wells, Texas, USA
Distance from Wildwood: SW 41mi, 65km
aktuell: Mar 28, 2020 9:53am
geschlossene Wolkendecke
geschlossene Wolkendecke
 Wind von WNW
Wind: WNW 12 mph , 19 km/h
Temperatur: 66°F , 19°C
Taupunkt: 34°F , 1°C
Luftfeuchte: 30%
Luftdruck: 29.86 inHg , 1011.2 hPa
Clouds: geschlossene Wolkendecke
Visibility: 10 miles , 16 km
Cloud details: geschlossene Wolkendecke 12000 ft
2020/03/28 14:53 KMWL 281453Z AUTO 30010KT 10SM OVC120 19/01 A2986 RMK AO2 SLP101 60000 T01890011 50048
KDFW - Dallas/Ft Worth, Texas, USA
Distance from Wildwood: OSO 45mi, 73km
aktuell: Mar 28, 2020 9:53am
sehr leichter Niederschlag, geschlossene Wolkendecke
sehr leichter Niederschlag, geschlossene Wolkendecke
 Wind von WNW
Wind: WNW 5 mph , 7 km/h
Temperatur: 59°F , 15°C
Taupunkt: 50°F , 10°C
Luftfeuchte: 72%
Luftdruck: 29.82 inHg , 1009.8 hPa
Zusammenfassung: Light Rain
Clouds: geschlossene Wolkendecke
Visibility: 10 miles , 16 km
Cloud details: Few Clouds 9500 ft
geschlossene Wolkendecke 11000 ft
2020/03/28 14:53 KDFW 281453Z 30004KT 10SM -RA FEW095 OVC110 15/10 A2982 RMK AO2 LTG DSNT S TSE19 SLP092 TS MOVD NE P0004 60006 T01500100 50043